Time;durP1;ratioP1;P1;durP2;ratioP2;P2;SDS_P1;SDS_P2;PMS_P1;PMS_P2;Temp;Humidity;BMP_temperature;BMP_pressure;BME280_temperature;BME280_humidity;BME280_pressure;Samples;Min_cycle;Max_cycle;Signal;HPM_P1;HPM_P2
2022/11/23 05:21:39;;;;;;;13.93;8.10;;;13.70;70.30;;;;;;5443172;24;20478;-73
2022/11/23 05:24:07;;;;;;;15.70;7.80;;;13.70;70.30;;;;;;4789830;30;20060;-71
2022/11/23 05:26:33;;;;;;;11.90;7.93;;;13.70;70.30;;;;;;4790171;30;20043;-74
2022/11/23 05:28:58;;;;;;;15.98;7.43;;;13.70;70.40;;;;;;4790157;30;20123;-74
2022/11/23 05:31:24;;;;;;;9.88;7.10;;;13.60;70.50;;;;;;4789667;30;20054;-76
2022/11/23 05:33:50;;;;;;;10.05;7.05;;;13.60;70.50;;;;;;4790211;30;20047;-77
2022/11/23 05:36:21;;;;;;;12.23;6.90;;;13.60;70.40;;;;;;4790299;29;20367;-76
2022/11/23 05:38:47;;;;;;;13.98;6.43;;;13.60;70.50;;;;;;4820058;29;20043;-76
2022/11/23 05:41:13;;;;;;;15.13;5.50;;;13.80;70.60;;;;;;4804181;29;20603;-75
2022/11/23 05:43:38;;;;;;;12.65;4.88;;;13.90;70.60;;;;;;4790105;30;20531;-76
2022/11/23 05:46:12;;;;;;;9.05;4.82;;;14.10;70.40;;;;;;4790095;30;20164;-77
2022/11/23 05:48:47;;;;;;;8.70;4.22;;;14.20;70.40;;;;;;4789680;30;20062;-77
2022/11/23 05:51:32;;;;;;;8.68;4.47;;;14.30;70.40;;;;;;4789951;30;20050;-77
2022/11/23 05:57:45;;;;;;;7.50;4.43;;;14.60;70.50;;;;;;4765218;29;20043;-79
2022/11/23 06:00:11;;;;;;;12.73;4.47;;;14.70;70.40;;;;;;4793040;29;20051;-76
2022/11/23 06:03:38;;;;;;;14.65;4.60;;;14.80;70.30;;;;;;4785719;29;20055;-78
2022/11/23 06:06:05;;;;;;;14.00;4.45;;;14.90;70.80;;;;;;4771571;30;20043;-77
2022/11/23 06:08:31;;;;;;;16.13;4.53;;;14.90;70.70;;;;;;4773055;30;20091;-77
2022/11/23 06:11:00;;;;;;;12.50;4.72;;;14.90;70.70;;;;;;4789510;30;20136;-77
2022/11/23 06:13:25;;;;;;;10.50;4.35;;;15.00;70.90;;;;;;4803909;29;20188;-78
2022/11/23 06:15:54;;;;;;;10.38;5.25;;;15.00;71.00;;;;;;4789472;30;20142;-79
2022/11/23 06:18:20;;;;;;;14.80;4.57;;;15.00;70.90;;;;;;4789536;30;20047;-78
2022/11/23 06:20:45;;;;;;;13.50;4.60;;;15.10;70.90;;;;;;4788998;30;20048;-74
2022/11/23 06:23:11;;;;;;;19.77;5.95;;;15.20;71.00;;;;;;4789641;30;20083;-75
2022/11/23 06:25:42;;;;;;;13.80;6.00;;;15.30;71.00;;;;;;4789572;30;20055;-76
2022/11/23 06:28:08;;;;;;;13.60;5.68;;;15.40;70.50;;;;;;4773916;30;20473;-76
2022/11/23 06:30:34;;;;;;;14.75;5.82;;;15.40;70.00;;;;;;4789403;30;20039;-79
2022/11/23 06:33:03;;;;;;;14.05;5.40;;;15.50;70.20;;;;;;4797793;29;20118;-77
2022/11/23 06:36:26;;;;;;;26.40;6.93;;;15.50;70.30;;;;;;4790451;29;20074;-77
2022/11/23 06:38:53;;;;;;;20.42;6.25;;;15.50;70.40;;;;;;4751716;30;20047;-78
2022/11/23 06:41:24;;;;;;;24.98;6.95;;;15.50;70.50;;;;;;4751762;30;20117;-78
2022/11/23 06:43:49;;;;;;;25.90;6.28;;;15.50;70.70;;;;;;4764699;29;20058;-78
2022/11/23 06:50:13;;;;;;;28.98;7.10;;;15.40;70.90;;;;;;4790927;29;20385;-75
2022/11/23 06:52:49;;;;;;;20.08;5.50;;;15.40;71.20;;;;;;4792022;29;20047;-76
2022/11/23 06:55:28;;;;;;;28.50;6.20;;;15.40;71.50;;;;;;4769463;30;20055;-78
2022/11/23 06:58:40;;;;;;;22.73;5.43;;;15.30;71.70;;;;;;4741115;30;20051;-76
2022/11/23 07:01:37;;;;;;;23.27;5.55;;;15.30;72.00;;;;;;4740129;30;20064;-77
2022/11/23 07:04:35;;;;;;;24.27;4.78;;;15.30;72.30;;;;;;4697857;30;20422;-77
2022/11/23 07:10:01;;;;;;;20.98;5.35;;;15.20;72.40;;;;;;4754365;30;20055;-75
2022/11/23 07:12:27;;;;;;;30.27;6.13;;;15.20;72.30;;;;;;4754563;30;20040;-75
2022/11/23 07:14:52;;;;;;;20.27;5.25;;;15.30;72.10;;;;;;4755522;30;20084;-75
2022/11/23 07:17:18;;;;;;;16.85;5.32;;;15.30;72.00;;;;;;4757215;30;20467;-77
2022/11/23 07:19:47;;;;;;;24.10;5.05;;;15.30;71.90;;;;;;4758868;29;20058;-76
2022/11/23 07:22:13;;;;;;;23.30;4.82;;;15.20;71.70;;;;;;4820357;29;20358;-76
2022/11/23 07:24:38;;;;;;;16.00;3.88;;;15.30;71.70;;;;;;4824651;29;20061;-75
2022/11/23 07:27:04;;;;;;;24.33;4.72;;;15.30;71.70;;;;;;4809312;29;20495;-75
2022/11/23 07:29:30;;;;;;;13.93;5.18;;;15.30;71.70;;;;;;4809641;29;20051;-76
2022/11/23 07:31:55;;;;;;;13.43;5.55;;;15.30;71.20;;;;;;4810364;29;20473;-76
2022/11/23 07:34:21;;;;;;;17.92;6.15;;;15.40;70.70;;;;;;4794218;29;20054;-75
2022/11/23 07:36:47;;;;;;;15.82;6.55;;;15.40;70.00;;;;;;4798969;29;20059;-77
2022/11/23 07:39:15;;;;;;;15.27;6.28;;;15.40;69.40;;;;;;4792623;30;20059;-77
2022/11/23 07:41:41;;;;;;;15.93;6.90;;;15.30;68.70;;;;;;4790474;30;20063;-81
2022/11/23 07:44:07;;;;;;;14.80;6.60;;;15.30;68.30;;;;;;4791809;30;20047;-75
2022/11/23 07:46:32;;;;;;;11.93;6.03;;;15.20;68.40;;;;;;4791760;29;20051;-73
2022/11/23 07:49:01;;;;;;;17.67;6.80;;;15.20;68.30;;;;;;4791706;30;20051;-76
2022/11/23 07:51:27;;;;;;;11.00;5.82;;;15.10;68.40;;;;;;4792507;30;20061;-76
2022/11/23 07:53:53;;;;;;;18.00;6.25;;;15.10;68.70;;;;;;4791664;30;20059;-78
2022/11/23 07:56:19;;;;;;;8.05;5.13;;;15.10;69.10;;;;;;4814172;29;20064;-70
2022/11/23 07:58:44;;;;;;;12.73;6.18;;;15.10;69.20;;;;;;4809033;29;20478;-75
2022/11/23 08:01:16;;;;;;;11.45;5.72;;;15.10;69.20;;;;;;4791664;29;20046;-75
2022/11/23 08:03:46;;;;;;;8.60;5.35;;;15.10;68.90;;;;;;4791767;30;20486;-74
2022/11/23 08:06:13;;;;;;;10.27;6.30;;;15.10;68.60;;;;;;4776096;30;20451;-76
2022/11/23 08:08:39;;;;;;;11.35;5.78;;;15.10;68.00;;;;;;4791203;29;20066;-78
2022/11/23 08:11:08;;;;;;;12.32;5.30;;;15.00;67.40;;;;;;4805609;29;20458;-75
2022/11/23 08:13:36;;;;;;;11.07;4.85;;;14.90;67.30;;;;;;4791444;30;20046;-75
2022/11/23 08:16:02;;;;;;;15.88;4.97;;;14.90;67.50;;;;;;4791506;30;20542;-77
2022/11/23 08:18:28;;;;;;;11.80;4.97;;;14.90;67.70;;;;;;4791609;30;20466;-77
2022/11/23 08:20:57;;;;;;;10.63;4.72;;;14.90;67.70;;;;;;4791040;30;20062;-75
2022/11/23 08:23:24;;;;;;;10.50;5.53;;;14.80;67.60;;;;;;4775215;30;20130;-76
2022/11/23 08:25:50;;;;;;;9.63;5.00;;;14.80;67.80;;;;;;4791242;30;20145;-75
2022/11/23 08:28:16;;;;;;;11.35;5.13;;;14.80;68.00;;;;;;4790645;30;20051;-75
2022/11/23 08:30:41;;;;;;;8.88;4.47;;;14.80;67.70;;;;;;4791341;30;20068;-76
2022/11/23 08:33:15;;;;;;;11.10;5.13;;;14.80;67.00;;;;;;4820208;29;20077;-77
2022/11/23 08:35:42;;;;;;;12.77;4.75;;;14.80;66.80;;;;;;4792624;29;20134;-76
2022/11/23 08:38:09;;;;;;;9.07;4.43;;;14.80;66.70;;;;;;4808940;29;20042;-76
2022/11/23 08:40:36;;;;;;;9.05;4.57;;;14.70;66.90;;;;;;4809037;29;20039;-77
2022/11/23 08:43:02;;;;;;;11.32;4.38;;;14.60;67.40;;;;;;4823370;29;20458;-78
2022/11/23 08:45:28;;;;;;;8.35;3.92;;;14.50;67.60;;;;;;4809231;29;20061;-79
2022/11/23 08:48:04;;;;;;;9.55;4.25;;;14.40;67.70;;;;;;4808699;29;20412;-79
2022/11/23 08:50:34;;;;;;;14.02;3.92;;;14.50;67.80;;;;;;4793021;29;20147;-75
2022/11/23 08:52:59;;;;;;;8.60;4.07;;;14.40;67.80;;;;;;4808860;29;20043;-76
2022/11/23 09:06:53;;;;;;;7.32;3.30;;;14.40;67.90;;;;;;4810820;24;20537;-77
2022/11/23 09:09:19;;;;;;;6.95;3.50;;;14.30;67.90;;;;;;4807879;29;20066;-74
2022/11/23 09:11:44;;;;;;;10.35;4.15;;;14.40;68.00;;;;;;4808580;29;20461;-75
2022/11/23 09:14:10;;;;;;;8.80;4.28;;;14.30;68.00;;;;;;4808045;29;20472;-74
2022/11/23 09:16:36;;;;;;;9.48;5.45;;;14.40;67.80;;;;;;4807914;29;20145;-75
2022/11/23 09:19:01;;;;;;;14.07;6.18;;;14.40;67.40;;;;;;4807710;29;20055;-76
2022/11/23 09:21:32;;;;;;;12.20;6.80;;;14.40;67.00;;;;;;4791939;29;20051;-80
2022/11/23 09:23:58;;;;;;;10.80;6.63;;;14.40;66.60;;;;;;4792387;29;20059;-76
2022/11/23 09:26:25;;;;;;;7.75;5.25;;;14.30;66.40;;;;;;4808414;29;20062;-75
2022/11/23 09:28:51;;;;;;;8.25;5.40;;;14.30;66.70;;;;;;4808225;29;20118;-75
2022/11/23 09:31:19;;;;;;;11.07;5.28;;;14.20;67.10;;;;;;4792103;29;20046;-75
2022/11/23 09:33:45;;;;;;;8.55;5.50;;;14.10;67.60;;;;;;4808003;29;20065;-78
2022/11/23 09:36:11;;;;;;;7.97;4.90;;;14.10;67.60;;;;;;4807824;29;20121;-76
2022/11/23 09:38:36;;;;;;;8.32;4.40;;;14.10;67.70;;;;;;4792622;29;20058;-73
2022/11/23 09:41:34;;;;;;;7.25;4.93;;;14.10;67.70;;;;;;4792011;29;20129;-75
2022/11/23 09:44:12;;;;;;;6.80;4.30;;;14.10;67.60;;;;;;4797543;29;20051;-75
2022/11/23 09:46:51;;;;;;;9.52;4.15;;;14.10;67.80;;;;;;4807680;29;20131;-75
2022/11/23 09:49:22;;;;;;;10.20;3.88;;;14.10;67.80;;;;;;4806473;29;20051;-77
2022/11/23 09:51:49;;;;;;;7.18;4.10;;;14.20;67.90;;;;;;4808273;29;20047;-77
2022/11/23 09:54:24;;;;;;;7.00;4.10;;;14.10;67.90;;;;;;4791931;29;20539;-77
2022/11/23 09:56:52;;;;;;;11.45;4.38;;;14.10;68.00;;;;;;4807651;29;20476;-77
2022/11/23 09:59:21;;;;;;;8.27;4.53;;;14.10;68.10;;;;;;4777390;29;20039;-77
2022/11/23 10:01:46;;;;;;;7.82;3.70;;;14.10;68.10;;;;;;4807451;29;20047;-76
2022/11/23 10:04:17;;;;;;;7.50;3.45;;;14.10;68.20;;;;;;4807617;29;20049;-75
2022/11/23 10:06:56;;;;;;;7.60;3.45;;;14.10;68.20;;;;;;4806569;29;20059;-76
2022/11/23 10:09:44;;;;;;;5.75;3.28;;;14.10;68.20;;;;;;4807675;29;20058;-76
2022/11/23 10:12:43;;;;;;;7.78;4.15;;;14.10;68.40;;;;;;4807643;29;20046;-76
2022/11/23 10:15:14;;;;;;;8.82;4.40;;;14.10;68.10;;;;;;4791519;29;20050;-78
2022/11/23 10:21:45;;;;;;;14.38;4.40;;;14.20;67.80;;;;;;4807226;29;20420;-74
2022/11/23 10:25:07;;;;;;;15.00;3.80;;;14.20;67.80;;;;;;4807500;29;20043;-75
2022/11/23 10:27:35;;;;;;;9.27;3.83;;;14.20;67.80;;;;;;4807317;29;20107;-74
2022/11/23 10:30:14;;;;;;;11.32;3.42;;;14.10;67.90;;;;;;4807200;29;20062;-75
2022/11/23 10:32:49;;;;;;;12.98;3.20;;;14.20;68.10;;;;;;4791414;29;20043;-75
2022/11/23 10:36:16;;;;;;;;;;;;;;;;;;;;;
2022/11/23 10:39:38;;;;;;;11.48;3.00;;;14.50;68.50;;;;;;4798790;29;20055;-76
2022/11/23 10:42:19;;;;;;;9.38;2.90;;;14.80;68.20;;;;;;4794666;29;20042;-79
2022/11/23 10:44:52;;;;;;;15.43;3.05;;;14.90;67.80;;;;;;4794778;29;20090;-77
2022/11/23 10:47:49;;;;;;;12.77;2.90;;;14.90;68.30;;;;;;4809508;29;20130;-77
2022/11/23 10:51:04;;;;;;;8.48;2.08;;;15.00;68.80;;;;;;4794280;29;20062;-76
2022/11/23 10:53:33;;;;;;;11.57;2.67;;;15.10;68.90;;;;;;4788701;29;20055;-75
2022/11/23 10:56:19;;;;;;;7.05;2.40;;;15.10;68.90;;;;;;4810526;29;20055;-75
2022/11/23 10:58:45;;;;;;;14.23;2.45;;;15.10;69.10;;;;;;4810268;29;20073;-75
2022/11/23 11:27:31;;;;;;;5.25;0.98;;;14.80;69.00;;;;;;4805936;29;20128;-74
2022/11/23 11:30:21;;;;;;;3.85;0.90;;;14.80;69.10;;;;;;4810275;29;20058;-74
2022/11/23 11:33:26;;;;;;;8.38;1.55;;;14.80;69.00;;;;;;4803004;29;20054;-75
2022/11/23 11:43:54;;;;;;;6.88;1.60;;;14.70;68.40;;;;;;4722651;30;20044;-76
2022/11/23 11:46:34;;;;;;;12.90;1.90;;;14.60;68.50;;;;;;4794673;29;20130;-75
2022/11/23 11:56:17;;;;;;;7.47;2.10;;;14.60;68.70;;;;;;4768900;30;20053;-74
2022/11/23 11:58:54;;;;;;;13.40;2.42;;;14.60;68.30;;;;;;4804016;29;20282;-76
2022/11/23 12:01:36;;;;;;;12.48;2.47;;;14.60;66.90;;;;;;4778395;29;20038;-72
2022/11/23 12:19:11;;;;;;;7.50;1.45;;;14.90;66.80;;;;;;4736330;30;20047;-77
2022/11/23 12:26:04;;;;;;;10.20;1.63;;;15.20;66.80;;;;;;4791550;29;20061;-78
2022/11/23 12:29:08;;;;;;;8.77;1.27;;;15.30;66.90;;;;;;4817436;29;20064;-78
2022/11/23 12:43:11;;;;;;;13.50;2.08;;;15.30;67.70;;;;;;4806509;29;20091;-78
2022/11/23 12:50:18;;;;;;;12.52;1.50;;;15.40;68.30;;;;;;4785954;30;20055;-79
2022/11/23 12:53:14;;;;;;;12.45;1.52;;;15.40;68.50;;;;;;4751874;30;20528;-77
2022/11/23 12:56:01;;;;;;;13.15;1.77;;;15.40;68.70;;;;;;4716899;30;20140;-75
2022/11/23 12:58:28;;;;;;;13.57;2.33;;;15.40;68.90;;;;;;4779310;30;20061;-77
2022/11/23 13:01:07;;;;;;;11.85;2.08;;;15.40;68.80;;;;;;4789229;30;20108;-76
2022/11/23 13:49:34;;;;;;;7.45;1.30;;;14.90;67.80;;;;;;5037538;24;20051;-78
2022/11/23 13:52:21;;;;;;;7.32;1.60;;;14.90;68.00;;;;;;4772203;30;20056;-76
2022/11/23 13:54:52;;;;;;;8.95;1.77;;;14.90;68.00;;;;;;4771545;30;20056;-77
2022/11/23 13:57:18;;;;;;;11.57;1.50;;;14.90;68.10;;;;;;4771075;30;20388;-75
2022/11/23 13:59:44;;;;;;;16.95;2.13;;;14.90;68.30;;;;;;4771959;30;20047;-79
2022/11/23 14:02:10;;;;;;;22.25;3.95;;;14.90;68.30;;;;;;4788355;29;20051;-78
2022/11/23 14:04:39;;;;;;;16.65;2.70;;;15.00;68.30;;;;;;4803774;29;20100;-78
2022/11/23 14:07:11;;;;;;;22.83;3.83;;;15.10;67.90;;;;;;4809836;29;20478;-77
2022/11/23 14:09:53;;;;;;;23.23;3.55;;;15.20;68.40;;;;;;4811150;29;20039;-76
2022/11/23 14:12:47;;;;;;;22.92;3.40;;;15.20;68.50;;;;;;4811429;29;20058;-78
2022/11/23 14:15:18;;;;;;;21.77;3.25;;;15.30;68.70;;;;;;4811506;29;20054;-75
2022/11/23 14:17:47;;;;;;;22.63;2.97;;;15.40;68.80;;;;;;4811645;29;20051;-77
2022/11/23 14:20:17;;;;;;;18.67;3.22;;;15.40;68.60;;;;;;4795755;29;20050;-79
2022/11/23 14:23:10;;;;;;;24.75;3.20;;;15.50;68.70;;;;;;4811789;29;20061;-75
2022/11/23 14:25:54;;;;;;;21.73;2.70;;;15.50;68.70;;;;;;4811238;29;20047;-76
2022/11/23 14:28:20;;;;;;;;;;;15.60;68.80;;;;;;4812175;29;20414;-76
2022/11/23 14:31:02;;;;;;;22.83;3.10;;;15.60;68.90;;;;;;4807847;29;19976;-77
2022/11/23 14:34:08;;;;;;;24.83;3.33;;;15.60;68.90;;;;;;4789870;30;20035;-77
2022/11/23 14:36:45;;;;;;;26.40;3.72;;;15.60;68.90;;;;;;4742661;30;20056;-76
2022/11/23 14:40:11;;;;;;;17.70;3.05;;;15.60;69.00;;;;;;4791331;30;20360;-76
2022/11/23 14:42:42;;;;;;;22.05;3.70;;;15.60;69.10;;;;;;4792787;30;20448;-78
2022/11/23 14:45:13;;;;;;;16.95;2.45;;;15.50;69.10;;;;;;4792651;30;20055;-77
2022/11/23 14:47:44;;;;;;;20.48;2.83;;;15.50;69.30;;;;;;4791563;30;20070;-77
2022/11/23 14:50:29;;;;;;;23.08;4.13;;;15.60;69.20;;;;;;4792514;30;20047;-78
2022/11/23 14:53:13;;;;;;;25.55;2.78;;;15.50;68.80;;;;;;4792819;30;20046;-76
2022/11/23 14:55:48;;;;;;;19.30;3.28;;;15.50;68.60;;;;;;4776618;30;20054;-77
2022/11/23 14:58:22;;;;;;;28.48;3.42;;;15.40;68.70;;;;;;4776471;30;20080;-75
2022/11/23 15:00:48;;;;;;;25.75;4.07;;;15.40;68.90;;;;;;4795086;29;20059;-73
2022/11/23 15:03:17;;;;;;;30.80;4.63;;;15.40;69.20;;;;;;4810349;29;20075;-75
2022/11/23 15:05:54;;;;;;;18.50;3.63;;;15.40;69.20;;;;;;4809783;29;20039;-74
2022/11/23 15:08:30;;;;;;;20.73;5.40;;;15.40;70.10;;;;;;4794432;29;20073;-77
2022/11/23 15:11:09;;;;;;;26.08;5.75;;;15.40;70.10;;;;;;4810374;29;20359;-76
2022/11/23 15:13:48;;;;;;;37.80;8.80;;;15.40;70.10;;;;;;4810394;29;20053;-76
2022/11/23 15:16:16;;;;;;;31.58;6.72;;;15.40;70.30;;;;;;4810123;29;20043;-78
2022/11/23 15:18:45;;;;;;;30.25;6.47;;;15.40;70.30;;;;;;4809600;29;20100;-76
2022/11/23 15:21:16;;;;;;;25.58;7.05;;;15.40;70.40;;;;;;4810459;29;20051;-76
2022/11/23 15:23:53;;;;;;;27.25;4.93;;;15.40;71.20;;;;;;4797869;29;20475;-78
2022/11/23 15:26:22;;;;;;;7.35;2.60;;;15.50;69.80;;;;;;4792324;30;20063;-77
2022/11/23 15:28:51;;;;;;;7.43;2.80;;;15.40;65.30;;;;;;4791717;30;20098;-80
2022/11/23 15:31:39;;;;;;;7.03;2.15;;;15.20;65.70;;;;;;4791765;29;20051;-76
2022/11/23 15:34:14;;;;;;;5.38;1.90;;;15.00;64.30;;;;;;4792305;30;20051;-78
2022/11/23 15:36:41;;;;;;;7.45;1.67;;;14.90;65.00;;;;;;4792205;30;20062;-78
2022/11/23 15:39:15;;;;;;;9.73;2.25;;;14.80;65.80;;;;;;4775924;30;20091;-77
2022/11/23 15:41:41;;;;;;;11.60;2.22;;;14.90;67.30;;;;;;4775554;30;20059;-78
2022/11/23 15:44:23;;;;;;;8.45;1.85;;;14.90;67.80;;;;;;4796438;29;20043;-79
2022/11/23 15:47:33;;;;;;;12.95;2.67;;;14.90;68.60;;;;;;4808777;29;20042;-78
2022/11/23 16:36:41;;;;;;;17.77;3.22;;;15.40;73.00;;;;;;5710913;24;20229;-79
2022/11/23 16:39:09;;;;;;;22.42;3.05;;;15.40;73.30;;;;;;4787590;29;20092;-82
2022/11/23 16:41:47;;;;;;;12.82;3.00;;;15.40;73.10;;;;;;4791299;29;20046;-78
2022/11/23 16:44:16;;;;;;;30.42;3.72;;;15.30;73.00;;;;;;4778055;29;20060;-79
2022/11/23 16:46:43;;;;;;;28.92;3.33;;;15.40;73.30;;;;;;4777646;29;20054;-79
2022/11/23 16:49:18;;;;;;;24.65;3.05;;;15.30;73.50;;;;;;4792468;29;20051;-79
2022/11/23 16:51:44;;;;;;;12.85;1.77;;;15.40;73.20;;;;;;4777787;29;20340;-77
2022/11/23 16:54:13;;;;;;;8.20;2.13;;;15.40;70.70;;;;;;4808540;29;20051;-82
2022/11/23 18:26:25;;;;;;;7.88;1.30;;;14.20;73.00;;;;;;5020220;24;20074;-75
2022/11/23 18:28:57;;;;;;;8.75;1.85;;;14.20;73.20;;;;;;4804669;29;20115;-79
2022/11/23 18:31:41;;;;;;;7.55;1.50;;;14.20;73.50;;;;;;4805683;29;20054;-81
2022/11/23 18:34:16;;;;;;;12.10;2.25;;;14.20;74.00;;;;;;4792315;29;20126;-82
2022/11/23 18:36:52;;;;;;;4.78;1.30;;;14.20;74.40;;;;;;4807731;29;20042;-78
2022/11/23 18:39:18;;;;;;;7.00;1.70;;;14.20;74.70;;;;;;4807599;29;20482;-77
2022/11/23 18:41:45;;;;;;;5.57;1.40;;;14.20;74.20;;;;;;4807460;29;20130;-80
2022/11/23 18:44:11;;;;;;;4.22;1.50;;;14.30;73.80;;;;;;4807272;29;20162;-80
2022/11/23 18:46:36;;;;;;;6.80;2.08;;;14.30;73.00;;;;;;4792160;29;20059;-78
2022/11/23 18:49:14;;;;;;;5.57;1.88;;;14.40;72.40;;;;;;4791570;29;20058;-80
2022/11/23 18:51:48;;;;;;;4.80;1.65;;;14.40;71.60;;;;;;4776559;29;20431;-81
2022/11/23 18:54:20;;;;;;;6.38;2.33;;;14.50;71.20;;;;;;4825373;29;20562;-79
2022/11/23 18:56:46;;;;;;;4.70;2.22;;;14.50;70.80;;;;;;4788967;29;20042;-79
2022/11/23 18:59:13;;;;;;;3.65;1.83;;;14.50;70.80;;;;;;4826193;29;20061;-77
2022/11/23 19:01:38;;;;;;;5.38;2.63;;;14.50;70.70;;;;;;4812793;29;20057;-78
2022/11/23 19:04:04;;;;;;;5.75;2.10;;;14.50;70.50;;;;;;4828816;29;20061;-77
2022/11/23 19:06:32;;;;;;;3.85;2.33;;;14.50;70.20;;;;;;4818948;29;20054;-76
2022/11/23 19:08:57;;;;;;;4.22;2.40;;;14.40;69.30;;;;;;4794094;29;20068;-77
2022/11/23 19:11:26;;;;;;;8.27;3.72;;;14.40;68.50;;;;;;4795537;29;20055;-75
2022/11/23 19:13:54;;;;;;;4.97;3.22;;;14.30;68.20;;;;;;4810470;29;20071;-78
2022/11/23 19:16:25;;;;;;;6.15;3.20;;;14.20;68.30;;;;;;4794872;29;20054;-77
2022/11/23 19:18:56;;;;;;;6.00;3.75;;;14.10;68.40;;;;;;4810185;29;20061;-77
2022/11/23 19:21:24;;;;;;;5.03;3.10;;;14.10;69.00;;;;;;4794194;29;20056;-76
2022/11/23 19:23:52;;;;;;;7.10;2.95;;;14.10;69.70;;;;;;4809336;29;20051;-78
2022/11/23 19:26:18;;;;;;;7.00;2.40;;;14.00;70.30;;;;;;4810232;29;20094;-78
2022/11/23 19:28:45;;;;;;;4.95;2.72;;;14.00;70.70;;;;;;4810952;29;20047;-78
2022/11/23 19:31:13;;;;;;;6.88;2.60;;;14.00;71.00;;;;;;4810402;29;20447;-78
2022/11/23 19:33:39;;;;;;;5.18;2.28;;;14.00;71.20;;;;;;4779051;29;20517;-77
2022/11/23 19:36:07;;;;;;;12.30;2.67;;;13.90;71.40;;;;;;4813962;29;20043;-77
2022/11/23 19:38:33;;;;;;;4.20;2.35;;;13.90;71.70;;;;;;4827646;29;20454;-77
2022/11/23 19:40:59;;;;;;;6.10;2.40;;;13.90;71.80;;;;;;4828118;29;20089;-77
2022/11/23 19:43:24;;;;;;;2.70;1.70;;;13.90;71.90;;;;;;4824202;29;20070;-77
2022/11/23 19:45:57;;;;;;;4.07;2.30;;;13.90;72.00;;;;;;4809722;29;20055;-76
2022/11/23 19:48:23;;;;;;;6.15;2.55;;;13.90;72.20;;;;;;4794439;29;20059;-76
2022/11/23 19:50:57;;;;;;;7.80;1.85;;;13.90;72.30;;;;;;4809515;29;20058;-77
2022/11/23 19:53:23;;;;;;;2.85;1.50;;;13.90;72.50;;;;;;4809746;29;20090;-77
2022/11/23 19:55:49;;;;;;;3.63;1.92;;;13.90;72.50;;;;;;4808817;29;20120;-78
2022/11/23 19:58:15;;;;;;;3.35;1.73;;;13.90;72.60;;;;;;4793868;29;20062;-78
2022/11/23 20:00:47;;;;;;;4.45;1.60;;;13.90;72.70;;;;;;4809530;29;20122;-77
2022/11/23 20:03:13;;;;;;;3.88;2.03;;;13.90;72.80;;;;;;4809400;29;20054;-76
2022/11/23 20:05:55;;;;;;;3.47;1.83;;;13.90;72.80;;;;;;4809576;29;20492;-78
2022/11/23 20:08:21;;;;;;;3.97;1.60;;;13.90;72.80;;;;;;4809748;29;20053;-77
2022/11/23 20:10:47;;;;;;;2.90;1.67;;;13.90;72.90;;;;;;4793901;29;20154;-76
2022/11/23 20:13:12;;;;;;;3.28;1.50;;;13.90;73.00;;;;;;4817737;29;20381;-76
2022/11/23 20:15:38;;;;;;;3.58;2.10;;;13.90;73.00;;;;;;4827455;29;20058;-77
2022/11/23 20:18:04;;;;;;;3.13;1.35;;;13.90;73.00;;;;;;4827499;29;20050;-77
2022/11/23 20:20:30;;;;;;;3.80;1.75;;;13.90;73.00;;;;;;4811819;29;20050;-77
2022/11/23 20:22:56;;;;;;;3.17;1.67;;;13.90;73.10;;;;;;4827895;29;20207;-78
2022/11/23 20:25:22;;;;;;;3.55;1.88;;;13.90;73.10;;;;;;4827499;29;20069;-76
2022/11/23 20:27:47;;;;;;;3.50;1.40;;;13.90;72.90;;;;;;4801207;29;20130;-79
2022/11/23 20:30:13;;;;;;;5.35;1.70;;;13.90;73.10;;;;;;4811753;29;20069;-77
2022/11/23 20:32:39;;;;;;;4.22;1.45;;;13.90;73.10;;;;;;4826804;29;20166;-77
2022/11/23 20:35:05;;;;;;;4.57;1.80;;;13.90;73.20;;;;;;4818428;29;20492;-76
2022/11/23 20:37:34;;;;;;;4.07;1.40;;;13.90;73.40;;;;;;4808775;29;20058;-77
2022/11/23 20:40:00;;;;;;;2.47;1.52;;;13.90;73.50;;;;;;4793109;29;20062;-78
2022/11/23 20:42:27;;;;;;;4.88;2.05;;;13.90;73.50;;;;;;4809132;29;20053;-77
2022/11/23 20:44:53;;;;;;;9.45;1.85;;;13.80;73.50;;;;;;4808921;29;20562;-77
2022/11/23 20:47:19;;;;;;;4.13;1.27;;;13.80;73.60;;;;;;4818036;29;20042;-77
2022/11/23 20:49:44;;;;;;;5.10;1.65;;;13.80;73.60;;;;;;4826376;29;20046;-78
2022/11/23 20:52:10;;;;;;;5.07;1.60;;;13.80;73.60;;;;;;4827400;29;20108;-76
2022/11/23 20:54:42;;;;;;;2.58;1.63;;;13.80;73.70;;;;;;4827221;29;20375;-77
2022/11/23 20:57:08;;;;;;;3.15;1.52;;;13.80;73.60;;;;;;4811195;29;20373;-78
2022/11/23 20:59:34;;;;;;;2.88;1.33;;;13.90;73.80;;;;;;4811519;29;20110;-77
2022/11/23 21:02:00;;;;;;;3.30;1.50;;;13.80;73.80;;;;;;4827194;29;20510;-77
2022/11/23 21:04:25;;;;;;;4.68;1.42;;;13.80;73.80;;;;;;4810855;29;20054;-77
2022/11/23 21:06:51;;;;;;;2.75;1.65;;;13.80;73.90;;;;;;4810786;29;20165;-76
2022/11/23 21:09:17;;;;;;;4.28;1.70;;;13.80;73.90;;;;;;4810825;29;20118;-79
2022/11/23 21:14:29;;;;;;;4.70;1.60;;;13.80;74.00;;;;;;4826952;29;20050;-77
2022/11/23 21:16:59;;;;;;;5.32;1.75;;;13.80;74.00;;;;;;4826405;29;20111;-76
2022/11/23 21:19:33;;;;;;;5.53;1.52;;;13.80;74.00;;;;;;4826881;29;20046;-78
2022/11/23 21:22:04;;;;;;;;;;;13.70;74.00;;;;;;4827160;29;20208;-77
2022/11/23 21:24:30;;;;;;;2.17;1.20;;;13.80;74.20;;;;;;4807800;29;20397;-76
2022/11/23 21:26:55;;;;;;;3.58;1.63;;;13.70;74.10;;;;;;4788808;30;20146;-77
2022/11/23 21:29:21;;;;;;;3.97;1.85;;;13.70;74.10;;;;;;4790218;30;20066;-78
2022/11/23 21:31:48;;;;;;;5.10;2.45;;;13.80;73.90;;;;;;4790540;30;20066;-77
2022/11/23 21:34:20;;;;;;;4.00;2.75;;;13.80;73.20;;;;;;4790516;30;20055;-77
2022/11/23 21:36:46;;;;;;;5.75;2.95;;;13.90;72.40;;;;;;4774492;30;20055;-78
2022/11/23 21:39:13;;;;;;;9.07;3.75;;;14.00;71.60;;;;;;4773927;30;20058;-77
2022/11/23 21:41:39;;;;;;;5.70;3.30;;;14.00;71.00;;;;;;4790083;30;20472;-77
2022/11/23 21:44:07;;;;;;;5.57;3.08;;;14.00;70.60;;;;;;4789626;30;20047;-78
2022/11/23 21:46:33;;;;;;;5.40;3.50;;;14.00;70.40;;;;;;4789722;30;20051;-76
2022/11/23 21:49:26;;;;;;;6.00;4.03;;;14.00;69.90;;;;;;4803248;29;20059;-81
2022/11/23 21:51:52;;;;;;;10.95;3.67;;;14.00;69.50;;;;;;4783925;30;20216;-76
2022/11/23 21:54:18;;;;;;;8.57;4.18;;;14.00;69.30;;;;;;4799449;29;20568;-75
2022/11/23 21:56:45;;;;;;;8.55;3.90;;;14.10;69.00;;;;;;4808273;29;20115;-76
2022/11/23 21:59:11;;;;;;;13.68;4.20;;;14.00;68.70;;;;;;4791334;29;20091;-77
2022/11/23 22:01:38;;;;;;;9.90;4.43;;;14.00;68.50;;;;;;4789966;29;20134;-77
2022/11/23 22:04:14;;;;;;;9.23;3.65;;;14.00;68.40;;;;;;4773347;30;20055;-76
2022/11/23 22:06:40;;;;;;;6.68;3.58;;;14.00;68.30;;;;;;4775009;29;20079;-77
